aviador You're here:

LDPL Decoded Metar

PULA in CROATIA
Report Time2017-09-20 07:00:00
UTC Time2017-09-20 07:33:08
Flight Rules vfr VFR
Wind350° at 07 kt
W.Decomp.*RWY 27: 1.6 kt HW 6.8 kt RCW
W.Rank350° ranks 32
Current wind is above 350° avg. (5.3)
Visibility9999 m
Phenomena:N/A
Clouds:Scattered 050 Hf
Expected CloudBase > 2,400 ft AGL from Temp-Dew spread
CeilingNone
Temp13°C (ISA -2)
Dew Point07°C (67% RH)
AAT9.8°C
QNH1013 hPa
Density Alt154 ft
Elevation207 ft
Report Wrong Elevation
Raw Report
LDPL 200700Z 35007KT 9999 SCT050 13/07 Q1013 NOSIG=

Extra information for LDPL:More info

Metar Taf Metar & Taf Last 4 Metars F.Rules Stats Wind Profile Meteogram Temp Stats Airport Information Weather charts Add Link Nearby VenuesMetar ALERT Operation Metar Decoded Social comments